createdAt,value
2023-01-07T00:01:42.883Z,3.50
2023-01-07T00:04:13.099Z,3.25
2023-01-07T00:06:42.484Z,3.20
2023-01-07T00:09:13.589Z,2.78
2023-01-07T00:11:43.000Z,4.40
2023-01-07T00:14:14.287Z,3.40
2023-01-07T00:16:43.347Z,3.20
2023-01-07T00:19:13.017Z,3.08
2023-01-07T00:21:41.908Z,3.00
2023-01-07T00:24:11.997Z,3.30
2023-01-07T00:26:41.098Z,3.17
2023-01-07T00:29:10.350Z,3.20
2023-01-07T00:31:41.096Z,3.10
2023-01-07T00:34:10.295Z,3.20
2023-01-07T00:36:40.518Z,3.33
2023-01-07T00:39:10.463Z,3.45
2023-01-07T00:41:39.189Z,3.70
2023-01-07T00:44:08.405Z,3.60
2023-01-07T00:46:37.205Z,3.35
2023-01-07T00:49:07.309Z,3.50
2023-01-07T00:51:36.109Z,2.95
2023-01-07T00:54:04.824Z,3.08
2023-01-07T00:56:33.614Z,3.30
2023-01-07T00:59:02.289Z,3.05
2023-01-07T01:01:31.091Z,3.10
2023-01-07T01:03:59.912Z,3.15
2023-01-07T01:06:29.931Z,3.47
2023-01-07T01:08:58.715Z,3.20
2023-01-07T01:11:27.326Z,3.20
2023-01-07T01:13:55.929Z,2.83
2023-01-07T01:16:25.666Z,3.40
2023-01-07T01:18:54.727Z,3.30
2023-01-07T01:21:23.383Z,2.72
2023-01-07T01:23:53.443Z,3.17
2023-01-07T01:26:22.264Z,2.90
2023-01-07T01:28:50.860Z,3.38
2023-01-07T01:31:23.997Z,3.50
2023-01-07T01:33:55.353Z,3.42
2023-01-07T01:36:25.138Z,2.92
2023-01-07T01:38:57.878Z,3.42
2023-01-07T01:41:28.702Z,3.20
2023-01-07T01:43:59.130Z,3.15
2023-01-07T01:46:33.044Z,3.28
2023-01-07T01:49:03.908Z,3.40
2023-01-07T01:51:37.031Z,3.38
2023-01-07T01:54:08.329Z,3.85
2023-01-07T01:56:38.628Z,3.45
2023-01-07T01:59:08.696Z,3.05
2023-01-07T02:01:39.332Z,3.40
2023-01-07T02:04:14.970Z,3.25
2023-01-07T02:06:45.895Z,3.42
2023-01-07T02:09:16.177Z,3.70
2023-01-07T02:11:50.350Z,3.55
2023-01-07T02:14:26.641Z,3.10
2023-01-07T02:17:00.352Z,3.17
2023-01-07T02:19:50.216Z,3.70
2023-01-07T02:22:26.596Z,3.70
2023-01-07T02:25:15.200Z,3.97
2023-01-07T02:28:03.462Z,3.60
2023-01-07T02:30:43.428Z,3.30
2023-01-07T02:33:27.497Z,3.47
2023-01-07T02:36:11.067Z,3.45
2023-01-07T02:38:44.593Z,3.60
2023-01-07T02:41:17.864Z,3.63
2023-01-07T02:43:53.727Z,3.00
2023-01-07T02:46:25.058Z,3.10
2023-01-07T02:48:53.787Z,3.00
2023-01-07T02:51:22.429Z,2.90
2023-01-07T02:53:52.450Z,2.95
2023-01-07T02:56:29.651Z,4.03
2023-01-07T02:59:06.349Z,3.00
2023-01-07T03:01:43.187Z,3.22
2023-01-07T03:04:17.667Z,3.22
2023-01-07T03:06:58.449Z,3.50
2023-01-07T03:09:33.195Z,3.40
2023-01-07T03:12:07.573Z,4.05
2023-01-07T03:14:39.178Z,3.40
2023-01-07T03:17:09.269Z,3.38
2023-01-07T03:19:40.498Z,2.90
2023-01-07T03:22:10.336Z,3.55
2023-01-07T03:24:40.500Z,3.53
2023-01-07T03:27:10.423Z,3.22
2023-01-07T03:29:39.149Z,2.83
2023-01-07T03:32:11.392Z,3.97
2023-01-07T03:34:40.537Z,4.05
2023-01-07T03:37:11.942Z,3.60
2023-01-07T03:39:44.035Z,3.58
2023-01-07T03:42:32.201Z,2.95
2023-01-07T03:45:01.865Z,3.00
2023-01-07T03:47:33.495Z,3.25
2023-01-07T03:50:02.477Z,3.65
2023-01-07T03:52:31.107Z,4.00
2023-01-07T03:55:02.155Z,3.60
2023-01-07T03:57:31.995Z,3.53
2023-01-07T04:00:02.759Z,3.53
2023-01-07T04:02:32.302Z,3.80
2023-01-07T04:05:00.946Z,4.13
2023-01-07T04:07:29.582Z,3.67
2023-01-07T04:09:58.236Z,3.70
2023-01-07T04:12:28.917Z,3.83
2023-01-07T04:14:59.227Z,4.05
2023-01-07T04:17:28.707Z,3.60
2023-01-07T04:19:57.493Z,3.25
2023-01-07T04:22:27.076Z,4.00
2023-01-07T04:24:55.739Z,3.42
2023-01-07T04:27:24.394Z,3.42
2023-01-07T04:29:55.184Z,3.53
2023-01-07T04:32:23.858Z,3.90
2023-01-07T04:34:52.658Z,3.55
2023-01-07T04:37:22.206Z,3.28
2023-01-07T04:39:51.991Z,3.42
2023-01-07T04:42:21.061Z,3.88
2023-01-07T04:44:49.767Z,3.85
2023-01-07T04:47:19.778Z,3.58
2023-01-07T04:49:49.179Z,2.95
2023-01-07T04:52:17.937Z,3.38
2023-01-07T04:54:46.708Z,3.50
2023-01-07T04:57:15.496Z,2.60
2023-01-07T04:59:46.969Z,3.42
2023-01-07T05:02:15.823Z,3.45
2023-01-07T05:04:46.164Z,3.28
2023-01-07T05:07:15.191Z,3.47
2023-01-07T05:09:44.056Z,2.88
2023-01-07T05:12:13.367Z,3.00
2023-01-07T05:14:43.858Z,3.60
2023-01-07T05:17:13.385Z,3.28
2023-01-07T05:19:42.163Z,3.60
2023-01-07T05:22:15.146Z,3.28
2023-01-07T05:24:44.392Z,2.95
2023-01-07T05:27:13.024Z,3.35
2023-01-07T05:29:42.634Z,3.67
2023-01-07T05:32:11.230Z,2.88
2023-01-07T05:34:41.786Z,2.88
2023-01-07T05:37:10.514Z,3.53
2023-01-07T05:39:42.423Z,3.55
2023-01-07T05:42:11.213Z,3.50
2023-01-07T05:44:42.550Z,3.28
2023-01-07T05:47:11.207Z,3.33
2023-01-07T05:49:39.832Z,3.83
2023-01-07T05:52:08.578Z,3.78
2023-01-07T05:54:37.262Z,3.50
2023-01-07T05:57:07.455Z,3.75
2023-01-07T05:59:36.082Z,3.63
2023-01-07T06:02:05.258Z,3.83
2023-01-07T06:04:34.545Z,3.50
2023-01-07T06:07:03.583Z,3.53
2023-01-07T06:09:32.220Z,3.47
2023-01-07T06:12:00.794Z,3.70
2023-01-07T06:14:30.834Z,3.30
2023-01-07T06:16:59.630Z,3.72
2023-01-07T06:19:28.393Z,3.88
2023-01-07T06:21:57.130Z,4.20
2023-01-07T06:24:25.804Z,3.63
2023-01-07T06:26:54.461Z,3.38
2023-01-07T06:29:23.102Z,3.97
2023-01-07T06:31:53.184Z,3.53
2023-01-07T06:34:21.854Z,4.35
2023-01-07T06:36:50.488Z,3.83
2023-01-07T06:39:19.162Z,3.60
2023-01-07T06:41:47.966Z,4.00
2023-01-07T06:44:16.612Z,3.55
2023-01-07T06:46:45.315Z,3.75
2023-01-07T06:49:15.533Z,3.33
2023-01-07T06:51:44.321Z,3.90
2023-01-07T06:54:13.027Z,4.43
2023-01-07T06:56:41.692Z,3.60
2023-01-07T06:59:10.273Z,3.92
2023-01-07T07:01:39.042Z,3.67
2023-01-07T07:04:07.784Z,3.60
2023-01-07T07:06:37.871Z,3.78
2023-01-07T07:09:06.600Z,3.90
2023-01-07T07:11:35.223Z,3.60
2023-01-07T07:14:04.342Z,3.90
2023-01-07T07:16:32.988Z,3.65
2023-01-07T07:19:01.578Z,3.38
2023-01-07T07:21:30.308Z,3.25
2023-01-07T07:24:01.022Z,3.90
2023-01-07T07:26:29.856Z,3.55
2023-01-07T07:28:58.477Z,3.70
2023-01-07T07:31:27.193Z,3.78
2023-01-07T07:33:55.927Z,3.33
2023-01-07T07:36:24.613Z,3.60
2023-01-07T07:38:53.310Z,3.70
2023-01-07T07:41:23.916Z,4.03
2023-01-07T07:43:52.646Z,3.53
2023-01-07T07:46:21.382Z,3.50
2023-01-07T07:48:50.637Z,4.00
2023-01-07T07:51:19.517Z,3.88
2023-01-07T07:53:48.361Z,4.13
2023-01-07T07:56:17.005Z,3.75
2023-01-07T07:58:47.673Z,4.18
2023-01-07T08:01:16.361Z,3.53
2023-01-07T08:03:45.515Z,3.78
2023-01-07T08:06:14.754Z,3.72
2023-01-07T08:08:43.609Z,3.58
2023-01-07T08:11:12.625Z,4.20
2023-01-07T08:13:41.368Z,3.92
2023-01-07T08:16:11.653Z,4.43
2023-01-07T08:18:40.829Z,4.13
2023-01-07T08:21:09.432Z,3.72
2023-01-07T08:23:38.145Z,4.45
2023-01-07T08:26:06.933Z,4.15
2023-01-07T08:28:36.009Z,4.40
2023-01-07T08:31:05.102Z,4.03
2023-01-07T08:33:37.717Z,4.63
2023-01-07T08:36:09.356Z,4.63
2023-01-07T08:38:40.733Z,4.03
2023-01-07T08:41:09.355Z,4.18
2023-01-07T08:43:37.978Z,4.55
2023-01-07T08:46:06.784Z,4.13
2023-01-07T08:48:39.143Z,4.00
2023-01-07T08:51:08.172Z,3.97
2023-01-07T08:53:36.800Z,4.05
2023-01-07T08:56:05.788Z,4.10
2023-01-07T08:58:34.417Z,4.72
2023-01-07T09:01:03.866Z,4.30
2023-01-07T09:03:32.591Z,4.85
2023-01-07T09:06:02.668Z,4.43
2023-01-07T09:08:31.340Z,3.95
2023-01-07T09:11:00.455Z,4.55
2023-01-07T09:13:29.491Z,4.78
2023-01-07T09:15:59.333Z,4.30
2023-01-07T09:18:28.542Z,4.32
2023-01-07T09:20:57.193Z,4.40
2023-01-07T09:23:27.319Z,4.30
2023-01-07T09:25:56.101Z,4.05
2023-01-07T09:28:24.811Z,4.43
2023-01-07T09:30:54.844Z,3.88
2023-01-07T09:33:25.268Z,4.07
2023-01-07T09:35:53.981Z,4.43
2023-01-07T09:38:22.720Z,4.70
2023-01-07T09:40:52.906Z,4.70
2023-01-07T09:43:26.253Z,4.53
2023-01-07T09:46:14.938Z,4.65
2023-01-07T09:48:46.153Z,4.50
2023-01-07T09:51:19.545Z,4.10
2023-01-07T09:53:49.454Z,4.75
2023-01-07T09:56:22.143Z,4.25
2023-01-07T09:58:51.134Z,4.25
2023-01-07T10:01:25.499Z,3.70
2023-01-07T10:04:01.881Z,4.43
2023-01-07T10:06:43.041Z,4.63
2023-01-07T10:09:16.777Z,3.80
2023-01-07T10:11:52.971Z,4.10
2023-01-07T10:14:31.538Z,4.85
2023-01-07T10:17:03.922Z,4.30
2023-01-07T10:19:35.278Z,3.83
2023-01-07T10:22:06.561Z,4.32
2023-01-07T10:24:40.106Z,3.53
2023-01-07T10:27:13.030Z,4.20
2023-01-07T10:29:43.966Z,3.78
2023-01-07T10:32:15.323Z,4.30
2023-01-07T10:34:46.206Z,3.70
2023-01-07T10:37:18.340Z,3.90
2023-01-07T10:39:52.580Z,3.80
2023-01-07T10:42:26.371Z,3.53
2023-01-07T10:45:09.887Z,3.80
2023-01-07T10:47:46.901Z,3.70
2023-01-07T10:50:30.537Z,4.25
2023-01-07T10:53:02.015Z,3.78
2023-01-07T10:55:36.534Z,3.53
2023-01-07T10:58:07.025Z,3.70
2023-01-07T11:00:35.734Z,3.80
2023-01-07T11:03:04.503Z,4.15
2023-01-07T11:05:37.904Z,3.75
2023-01-07T11:08:12.982Z,3.50
2023-01-07T11:10:41.970Z,4.03
2023-01-07T11:13:16.429Z,3.47
2023-01-07T11:15:46.391Z,3.85
2023-01-07T11:18:19.163Z,3.85
2023-01-07T11:20:48.754Z,3.30
2023-01-07T11:23:34.103Z,3.78
2023-01-07T11:26:13.984Z,3.60
2023-01-07T11:28:51.332Z,3.58
2023-01-07T11:31:20.490Z,3.40
2023-01-07T11:34:03.174Z,3.30
2023-01-07T11:36:42.180Z,4.38
2023-01-07T11:39:11.360Z,4.10
2023-01-07T11:41:42.115Z,4.18
2023-01-07T11:44:17.136Z,3.65
2023-01-07T11:46:46.405Z,3.40
2023-01-07T11:49:22.950Z,3.42
2023-01-07T11:51:53.275Z,3.65
2023-01-07T11:54:23.256Z,3.50
2023-01-07T11:56:54.180Z,2.83
2023-01-07T11:59:34.025Z,3.30
2023-01-07T12:02:02.752Z,3.33
2023-01-07T12:04:32.513Z,4.03
2023-01-07T12:07:02.994Z,3.25
2023-01-07T12:09:37.351Z,3.35
2023-01-07T12:12:31.549Z,3.67
2023-01-07T12:15:02.710Z,3.30
2023-01-07T12:17:34.485Z,3.25
2023-01-07T12:20:15.849Z,3.30
2023-01-07T12:22:50.156Z,3.53
2023-01-07T12:25:24.785Z,3.30
2023-01-07T12:28:00.595Z,3.60
2023-01-07T12:30:39.362Z,3.65
2023-01-07T12:33:14.126Z,4.10
2023-01-07T12:35:45.329Z,3.58
2023-01-07T12:38:16.759Z,4.03
2023-01-07T12:40:48.603Z,4.20
2023-01-07T12:43:19.637Z,4.40
2023-01-07T12:45:51.420Z,4.13
2023-01-07T12:48:24.538Z,3.65
2023-01-07T12:50:55.298Z,4.43
2023-01-07T12:53:27.113Z,3.92
2023-01-07T12:55:59.306Z,4.20
2023-01-07T12:58:34.234Z,5.13
2023-01-07T13:01:08.167Z,4.45
2023-01-07T13:03:44.498Z,4.25
2023-01-07T13:06:16.206Z,4.90
2023-01-07T13:08:47.738Z,5.10
2023-01-07T13:11:40.752Z,5.30
2023-01-07T13:14:15.796Z,5.32
2023-01-07T13:16:46.179Z,5.75
2023-01-07T13:19:14.818Z,5.57
2023-01-07T13:21:45.057Z,6.03
2023-01-07T13:24:22.053Z,5.40
2023-01-07T13:27:16.183Z,5.15
2023-01-07T13:29:50.567Z,5.15
2023-01-07T13:32:37.352Z,5.72
2023-01-07T13:35:21.991Z,6.07
2023-01-07T13:37:56.706Z,5.65
2023-01-07T13:40:47.813Z,6.07
2023-01-07T13:43:23.725Z,6.32
2023-01-07T13:45:55.045Z,6.72
2023-01-07T13:48:24.948Z,6.40
2023-01-07T13:50:59.676Z,7.18
2023-01-07T13:53:33.944Z,7.38
2023-01-07T13:56:17.647Z,8.23
2023-01-07T13:58:47.251Z,7.38
2023-01-07T14:01:16.802Z,7.70
2023-01-07T14:03:47.009Z,7.80
2023-01-07T14:06:43.061Z,8.30
2023-01-07T14:09:26.530Z,7.53
2023-01-07T14:12:22.331Z,7.78
2023-01-07T14:14:57.170Z,7.43
2023-01-07T14:17:30.320Z,7.93
2023-01-07T14:20:02.898Z,8.18
2023-01-07T14:22:37.685Z,7.78
2023-01-07T14:25:17.972Z,7.82
2023-01-07T14:27:55.986Z,7.35
2023-01-07T14:30:28.317Z,8.13
2023-01-07T14:32:58.750Z,7.30
2023-01-07T14:35:30.492Z,7.60
2023-01-07T14:37:59.240Z,7.18
2023-01-07T14:41:01.079Z,7.07
2023-01-07T14:43:49.597Z,7.60
2023-01-07T14:46:33.238Z,7.18
2023-01-07T14:49:14.104Z,7.38
2023-01-07T14:51:49.457Z,7.13
2023-01-07T14:54:29.302Z,7.10
2023-01-07T14:57:03.875Z,7.25
2023-01-07T14:59:40.593Z,8.85
2023-01-07T15:02:34.933Z,7.70
2023-01-07T15:05:14.709Z,7.40
2023-01-07T15:07:44.571Z,8.15
2023-01-07T15:10:36.819Z,7.57
2023-01-07T15:13:23.929Z,7.32
2023-01-07T15:16:04.071Z,8.60
2023-01-07T15:18:34.312Z,8.18
2023-01-07T15:21:11.367Z,7.95
2023-01-07T15:23:44.288Z,8.30
2023-01-07T15:26:18.143Z,7.55
2023-01-07T15:28:50.142Z,8.85
2023-01-07T15:31:22.688Z,8.02
2023-01-07T15:34:06.709Z,7.68
2023-01-07T15:36:40.632Z,9.10
2023-01-07T15:39:15.770Z,7.82
2023-01-07T15:41:44.506Z,8.23
2023-01-07T15:44:18.835Z,7.65
2023-01-07T15:46:47.701Z,7.63
2023-01-07T15:49:21.685Z,7.68
2023-01-07T15:51:53.445Z,8.98
2023-01-07T15:54:29.846Z,9.85
2023-01-07T15:57:00.169Z,8.38
2023-01-07T15:59:30.166Z,9.18
2023-01-07T16:02:02.034Z,8.70
2023-01-07T16:04:32.731Z,8.57
2023-01-07T16:07:03.003Z,8.38
2023-01-07T16:09:34.096Z,8.23
2023-01-07T16:12:03.058Z,8.52
2023-01-07T16:14:38.150Z,8.73
2023-01-07T16:17:15.469Z,8.18
2023-01-07T16:19:44.432Z,8.57
2023-01-07T16:22:16.156Z,12.75
2023-01-07T16:24:49.623Z,13.57
2023-01-07T16:27:19.213Z,10.90
2023-01-07T16:29:51.754Z,9.18
2023-01-07T16:32:21.201Z,9.15
2023-01-07T16:35:01.885Z,9.95
2023-01-07T16:37:33.090Z,9.20
2023-01-07T16:40:01.946Z,8.57
2023-01-07T16:42:30.621Z,8.20
2023-01-07T16:45:00.928Z,8.32
2023-01-07T16:47:30.399Z,7.93
2023-01-07T16:49:59.337Z,8.70
2023-01-07T16:52:30.876Z,8.90
2023-01-07T16:55:01.124Z,8.27
2023-01-07T16:57:31.285Z,8.95
2023-01-07T17:00:01.998Z,8.77
2023-01-07T17:02:32.856Z,11.13
2023-01-07T17:05:12.760Z,9.60
2023-01-07T17:07:41.665Z,10.95
2023-01-07T17:10:19.060Z,10.75
2023-01-07T17:12:56.805Z,9.77
2023-01-07T17:15:36.216Z,9.52
2023-01-07T17:18:23.803Z,10.38
2023-01-07T17:20:53.086Z,10.13
2023-01-07T17:23:39.681Z,9.25
2023-01-07T17:26:16.604Z,10.15
2023-01-07T17:28:47.123Z,10.77
2023-01-07T17:31:16.076Z,9.60
2023-01-07T17:33:44.856Z,10.23
2023-01-07T17:36:17.933Z,11.38
2023-01-07T17:38:46.967Z,11.02
2023-01-07T17:41:32.125Z,9.18
2023-01-07T17:44:00.842Z,10.30
2023-01-07T17:46:30.303Z,10.07
2023-01-07T17:48:58.980Z,9.95
2023-01-07T17:51:28.433Z,9.35
2023-01-07T17:53:58.301Z,9.65
2023-01-07T17:56:28.345Z,9.40
2023-01-07T17:58:57.039Z,10.00
2023-01-07T18:01:26.141Z,10.27
2023-01-07T18:03:54.996Z,9.07
2023-01-07T18:06:24.796Z,9.90
2023-01-07T18:08:54.038Z,9.57
2023-01-07T18:11:41.537Z,9.73
2023-01-07T18:14:11.660Z,9.77
2023-01-07T18:16:40.521Z,8.77
2023-01-07T18:19:09.529Z,9.20
2023-01-07T18:21:38.150Z,7.85
2023-01-07T18:24:07.089Z,7.95
2023-01-07T18:26:38.977Z,8.60
2023-01-07T18:29:07.640Z,8.38
2023-01-07T18:31:41.111Z,7.78
2023-01-07T18:34:10.280Z,7.53
2023-01-07T18:36:39.010Z,8.10
2023-01-07T18:39:09.133Z,8.15
2023-01-07T18:41:40.139Z,8.05
2023-01-07T18:44:08.991Z,7.95
2023-01-07T18:46:39.061Z,8.40
2023-01-07T18:49:07.753Z,8.45
2023-01-07T18:51:36.455Z,8.93
2023-01-07T18:54:06.033Z,8.82
2023-01-07T18:56:34.823Z,10.05
2023-01-07T18:59:03.464Z,9.40
2023-01-07T19:01:32.222Z,9.25
2023-01-07T19:04:02.694Z,9.93
2023-01-07T19:06:31.436Z,9.23
2023-01-07T19:09:00.115Z,8.82
2023-01-07T19:11:28.768Z,9.40
2023-01-07T19:13:57.490Z,9.63
2023-01-07T19:16:26.248Z,10.23
2023-01-07T19:18:54.933Z,9.48
2023-01-07T19:21:26.677Z,9.27
2023-01-07T19:23:55.501Z,9.98
2023-01-07T19:26:26.332Z,10.32
2023-01-07T19:28:55.019Z,10.55
2023-01-07T19:31:23.768Z,10.25
2023-01-07T19:33:52.398Z,10.00
2023-01-07T19:36:21.116Z,9.77
2023-01-07T19:38:51.292Z,9.88
2023-01-07T19:41:20.926Z,10.15
2023-01-07T19:43:52.101Z,10.25
2023-01-07T19:46:21.149Z,9.10
2023-01-07T19:48:49.784Z,9.25
2023-01-07T19:51:18.512Z,9.95
2023-01-07T19:53:48.223Z,10.15
2023-01-07T19:56:18.254Z,9.95
2023-01-07T19:58:46.897Z,10.07
2023-01-07T20:01:17.905Z,11.43
2023-01-07T20:03:47.161Z,10.02
2023-01-07T20:06:16.834Z,11.07
2023-01-07T20:08:45.555Z,10.07
2023-01-07T20:11:14.656Z,10.98
2023-01-07T20:13:46.399Z,10.27
2023-01-07T20:16:15.844Z,10.77
2023-01-07T20:18:45.513Z,10.77
2023-01-07T20:21:14.621Z,12.25
2023-01-07T20:23:43.667Z,10.68
2023-01-07T20:26:13.208Z,11.30
2023-01-07T20:28:41.949Z,11.63
2023-01-07T20:31:13.266Z,10.88
2023-01-07T20:33:42.316Z,11.32
2023-01-07T20:36:12.382Z,12.05
2023-01-07T20:38:41.256Z,11.95
2023-01-07T20:41:10.790Z,11.40
2023-01-07T20:43:39.560Z,11.73
2023-01-07T20:46:09.564Z,10.73
2023-01-07T20:48:39.637Z,11.10
2023-01-07T20:51:08.652Z,12.10
2023-01-07T20:53:38.393Z,11.57
2023-01-07T20:56:07.534Z,11.90
2023-01-07T20:58:37.228Z,12.25
2023-01-07T21:01:07.281Z,11.10
2023-01-07T21:03:36.124Z,11.70
2023-01-07T21:06:08.312Z,10.68
2023-01-07T21:08:38.548Z,12.10
2023-01-07T21:11:09.627Z,10.85
2023-01-07T21:13:38.265Z,11.23
2023-01-07T21:16:07.519Z,11.13
2023-01-07T21:18:36.865Z,11.75
2023-01-07T21:21:11.589Z,11.23
2023-01-07T21:23:40.486Z,10.32
2023-01-07T21:26:09.613Z,11.75
2023-01-07T21:28:38.642Z,11.60
2023-01-07T21:31:09.033Z,10.27
2023-01-07T21:33:38.454Z,11.07
2023-01-07T21:36:12.479Z,12.10
2023-01-07T21:38:41.319Z,11.07
2023-01-07T21:41:10.753Z,10.25
2023-01-07T21:43:40.458Z,11.27
2023-01-07T21:46:09.436Z,10.40
2023-01-07T21:48:38.666Z,9.75
2023-01-07T21:51:10.613Z,10.70
2023-01-07T21:53:40.738Z,9.60
2023-01-07T21:56:10.228Z,9.07
2023-01-07T21:58:39.396Z,9.43
2023-01-07T22:01:08.697Z,9.65
2023-01-07T22:03:38.339Z,8.23
2023-01-07T22:06:08.133Z,8.25
2023-01-07T22:08:36.921Z,7.75
2023-01-07T22:11:06.963Z,7.60
2023-01-07T22:13:35.616Z,7.82
2023-01-07T22:16:06.298Z,8.00
2023-01-07T22:18:34.984Z,6.95
2023-01-07T22:21:03.617Z,7.47
2023-01-07T22:23:32.277Z,7.35
2023-01-07T22:26:04.424Z,7.47
2023-01-07T22:28:35.527Z,7.38
2023-01-07T22:31:05.280Z,7.70
2023-01-07T22:33:33.990Z,7.55
2023-01-07T22:36:02.640Z,7.30
2023-01-07T22:38:31.430Z,7.78
2023-01-07T22:41:00.223Z,8.27
2023-01-07T22:43:29.161Z,8.90
2023-01-07T22:46:00.586Z,8.15
2023-01-07T22:48:29.769Z,7.97
2023-01-07T22:50:59.802Z,7.97
2023-01-07T22:53:29.945Z,8.27
2023-01-07T22:55:59.147Z,8.43
2023-01-07T22:58:27.862Z,8.38
2023-01-07T23:01:12.827Z,8.65
2023-01-07T23:03:41.987Z,7.82
2023-01-07T23:06:10.766Z,9.65
2023-01-07T23:08:39.440Z,10.02
2023-01-07T23:11:08.341Z,8.77
2023-01-07T23:13:37.244Z,9.57
2023-01-07T23:16:07.485Z,9.60
2023-01-07T23:18:37.554Z,10.10
2023-01-07T23:21:06.535Z,11.00
2023-01-07T23:23:35.189Z,10.70
2023-01-07T23:26:03.856Z,12.02
2023-01-07T23:28:32.481Z,11.70
2023-01-07T23:31:02.407Z,11.23
2023-01-07T23:33:31.035Z,11.27
2023-01-07T23:36:04.802Z,11.68
2023-01-07T23:38:33.737Z,11.77
2023-01-07T23:41:02.489Z,12.30
2023-01-07T23:43:31.137Z,11.55
2023-01-07T23:45:59.910Z,12.05
2023-01-07T23:48:28.988Z,11.65
2023-01-07T23:50:58.014Z,12.00
2023-01-07T23:53:28.012Z,13.02
2023-01-07T23:55:57.468Z,13.02
2023-01-07T23:58:26.650Z,11.23
